Time;durP1;ratioP1;P1;durP2;ratioP2;P2;SDS_P1;SDS_P2;PMS_P1;PMS_P2;Temp;Humidity;BMP_temperature;BMP_pressure;BME280_temperature;BME280_humidity;BME280_pressure;Samples;Min_cycle;Max_cycle;Signal;HPM_P1;HPM_P2
2022/03/20 00:01:04;;;;;;;17.38;12.52;;;17.20;61.30;;;;;;5000678;28;20129;-14
2022/03/20 00:03:30;;;;;;;14.68;12.00;;;17.20;61.30;;;;;;4992157;28;20173;-12
2022/03/20 00:05:56;;;;;;;14.68;11.73;;;17.20;61.20;;;;;;4992387;28;20042;-12
2022/03/20 00:08:22;;;;;;;14.98;11.93;;;17.20;61.20;;;;;;4990405;28;20196;-14
2022/03/20 00:10:49;;;;;;;14.68;11.38;;;17.20;61.20;;;;;;4992318;28;20073;-13
2022/03/20 00:13:20;;;;;;;15.77;11.93;;;17.20;61.10;;;;;;4994811;28;20099;-13
2022/03/20 00:15:47;;;;;;;15.43;11.38;;;17.20;61.20;;;;;;4984734;28;20074;-12
2022/03/20 00:18:13;;;;;;;12.45;10.95;;;17.20;61.20;;;;;;4991115;28;20049;-13
2022/03/20 00:20:40;;;;;;;12.48;10.93;;;17.20;61.10;;;;;;5003648;28;20116;-13
2022/03/20 00:23:08;;;;;;;13.50;11.68;;;17.20;61.20;;;;;;4995999;28;20076;-13
2022/03/20 00:25:34;;;;;;;11.88;10.40;;;17.20;61.30;;;;;;4996376;28;20050;-12
2022/03/20 00:28:00;;;;;;;13.05;11.13;;;17.20;61.20;;;;;;4985226;28;20060;-13
2022/03/20 00:30:25;;;;;;;13.27;10.80;;;17.20;61.20;;;;;;4997157;28;20065;-13
2022/03/20 00:32:51;;;;;;;13.93;11.48;;;17.20;61.20;;;;;;4998638;28;20050;-12
2022/03/20 00:35:16;;;;;;;13.55;11.45;;;17.20;61.20;;;;;;4997093;28;20057;-13
2022/03/20 00:37:42;;;;;;;12.48;10.82;;;17.20;61.20;;;;;;5000145;28;20042;-12
2022/03/20 00:40:08;;;;;;;12.18;10.07;;;17.10;61.20;;;;;;4991144;28;20070;-14
2022/03/20 00:42:33;;;;;;;13.10;10.95;;;17.10;61.10;;;;;;4985596;28;20143;-13
2022/03/20 00:44:59;;;;;;;11.88;10.07;;;17.10;61.10;;;;;;4998021;28;20054;-12
2022/03/20 00:47:25;;;;;;;13.68;10.85;;;17.20;61.20;;;;;;5004535;28;20060;-14
2022/03/20 00:49:50;;;;;;;10.65;9.55;;;17.10;61.10;;;;;;5015778;28;20045;-13
2022/03/20 00:52:16;;;;;;;11.82;10.23;;;17.10;61.10;;;;;;4999537;28;20611;-13
2022/03/20 00:54:41;;;;;;;10.25;9.18;;;17.10;61.20;;;;;;4995461;28;20144;-14
2022/03/20 00:57:07;;;;;;;13.40;9.95;;;17.10;61.20;;;;;;5001381;28;20057;-13
2022/03/20 00:59:33;;;;;;;11.30;10.05;;;17.10;61.20;;;;;;5007437;28;20048;-12
2022/03/20 01:01:58;;;;;;;10.68;9.57;;;17.10;61.20;;;;;;5004009;28;20498;-14
2022/03/20 01:04:24;;;;;;;11.02;9.18;;;17.10;61.20;;;;;;5006531;28;20545;-12
2022/03/20 01:06:50;;;;;;;12.27;9.63;;;17.10;61.20;;;;;;4996766;28;20104;-13
2022/03/20 01:09:15;;;;;;;12.80;9.80;;;17.10;61.10;;;;;;4996264;28;20042;-13
2022/03/20 01:11:41;;;;;;;11.20;9.60;;;17.10;61.10;;;;;;5000451;28;20104;-13
2022/03/20 01:14:08;;;;;;;10.68;9.57;;;17.10;61.10;;;;;;5013846;28;20076;-13
2022/03/20 01:16:33;;;;;;;10.77;8.88;;;17.10;61.20;;;;;;5009054;28;20054;-14
2022/03/20 01:18:59;;;;;;;10.05;9.05;;;17.10;61.20;;;;;;4994561;28;20136;-14
2022/03/20 01:21:25;;;;;;;10.57;9.48;;;17.10;61.10;;;;;;4995069;28;20077;-13
2022/03/20 01:23:50;;;;;;;10.68;9.40;;;17.10;61.10;;;;;;4987878;28;20070;-13
2022/03/20 01:26:16;;;;;;;11.10;9.43;;;17.10;61.20;;;;;;4997154;28;20050;-13
2022/03/20 01:28:42;;;;;;;11.38;9.25;;;17.10;61.10;;;;;;4992077;28;20046;-14
2022/03/20 01:31:09;;;;;;;10.38;9.25;;;17.10;61.10;;;;;;4984728;28;20050;-13
2022/03/20 01:33:34;;;;;;;9.88;8.90;;;17.10;60.90;;;;;;4979200;28;20054;-14
2022/03/20 01:36:00;;;;;;;9.73;8.73;;;17.10;60.90;;;;;;4995899;28;20058;-13
2022/03/20 01:38:26;;;;;;;11.10;9.52;;;17.10;60.90;;;;;;4997279;28;20050;-12
2022/03/20 01:40:52;;;;;;;9.93;8.93;;;17.00;60.80;;;;;;4996325;28;20102;-13
2022/03/20 01:43:18;;;;;;;10.02;8.93;;;17.10;60.90;;;;;;4978392;28;20042;-13
2022/03/20 01:45:43;;;;;;;9.77;8.82;;;17.00;60.80;;;;;;4996086;28;20566;-12
2022/03/20 01:48:09;;;;;;;9.57;8.68;;;17.00;60.90;;;;;;4995201;28;20138;-12
2022/03/20 01:50:35;;;;;;;11.02;9.10;;;17.00;61.10;;;;;;4989325;28;20074;-13
2022/03/20 01:53:01;;;;;;;9.75;8.75;;;17.00;61.10;;;;;;4988824;28;20049;-13
2022/03/20 01:55:28;;;;;;;10.10;8.82;;;17.00;61.10;;;;;;4991801;28;20050;-12
2022/03/20 01:57:54;;;;;;;9.35;8.45;;;17.00;61.00;;;;;;4980254;28;20407;-13
2022/03/20 02:00:20;;;;;;;10.93;8.80;;;16.90;61.00;;;;;;4997152;28;20098;-13
2022/03/20 02:02:46;;;;;;;9.80;8.80;;;17.00;61.00;;;;;;4996652;28;20117;-13
2022/03/20 02:05:12;;;;;;;9.40;8.50;;;17.00;61.10;;;;;;4997623;28;20081;-13
2022/03/20 02:07:38;;;;;;;9.60;7.90;;;16.90;61.20;;;;;;4986825;28;20050;-13
2022/03/20 02:10:05;;;;;;;9.10;8.20;;;16.90;61.10;;;;;;4996972;28;20073;-12
2022/03/20 02:12:31;;;;;;;8.77;7.97;;;16.90;61.30;;;;;;4990176;28;20061;-12
2022/03/20 02:14:58;;;;;;;9.07;7.72;;;16.90;61.20;;;;;;4990891;28;20065;-13
2022/03/20 02:17:24;;;;;;;8.88;7.30;;;16.90;61.30;;;;;;4989610;28;20070;-12
2022/03/20 02:19:50;;;;;;;8.65;7.70;;;16.90;61.30;;;;;;4991091;28;20463;-13
2022/03/20 02:22:17;;;;;;;8.63;7.50;;;16.90;61.10;;;;;;4979587;28;20050;-13
2022/03/20 02:24:46;;;;;;;9.27;8.10;;;16.90;61.20;;;;;;4996136;28;20034;-13
2022/03/20 02:27:19;;;;;;;11.02;7.80;;;16.80;61.20;;;;;;4997294;28;20054;-14
2022/03/20 02:29:47;;;;;;;8.40;7.60;;;16.90;61.10;;;;;;4997780;28;20042;-13
2022/03/20 02:32:14;;;;;;;9.48;8.57;;;16.90;61.30;;;;;;4994769;28;20054;-13
2022/03/20 02:34:40;;;;;;;8.77;7.93;;;16.80;61.20;;;;;;4997513;28;20049;-13
2022/03/20 02:37:06;;;;;;;9.32;8.23;;;16.80;61.30;;;;;;4997809;28;20046;-12
2022/03/20 02:39:32;;;;;;;8.32;7.53;;;16.80;61.20;;;;;;4979881;28;20085;-13
2022/03/20 02:42:00;;;;;;;8.27;7.47;;;16.80;61.30;;;;;;4986957;28;20054;-13
2022/03/20 02:45:03;;;;;;;8.88;8.07;;;16.80;61.30;;;;;;4996615;28;20503;-12
2022/03/20 02:47:33;;;;;;;9.23;8.32;;;16.80;61.30;;;;;;4986783;28;20246;-13
2022/03/20 02:50:04;;;;;;;8.70;7.80;;;16.80;61.10;;;;;;4992531;28;20045;-13
2022/03/20 02:52:46;;;;;;;9.25;8.35;;;16.90;61.30;;;;;;4988094;28;20047;-13
2022/03/20 02:55:12;;;;;;;9.00;8.07;;;16.80;61.10;;;;;;4993347;28;20031;-12
2022/03/20 02:57:37;;;;;;;9.27;8.38;;;16.80;61.00;;;;;;4979215;28;20045;-12
2022/03/20 03:00:05;;;;;;;9.10;8.20;;;16.90;61.00;;;;;;4983831;28;20049;-13
2022/03/20 03:02:36;;;;;;;8.30;7.50;;;16.90;61.30;;;;;;4996281;28;20046;-13
2022/03/20 03:05:02;;;;;;;9.45;8.38;;;16.90;61.10;;;;;;4995876;28;20112;-13
2022/03/20 03:07:28;;;;;;;7.50;6.88;;;16.80;61.10;;;;;;4982958;28;20466;-12
2022/03/20 03:12:38;;;;;;;8.05;7.35;;;16.90;61.00;;;;;;4996098;28;20085;-13
2022/03/20 03:15:19;;;;;;;8.95;8.10;;;16.90;60.90;;;;;;4995146;28;20054;-13
2022/03/20 03:17:46;;;;;;;7.18;6.57;;;16.80;60.90;;;;;;4994947;28;20046;-13
2022/03/20 03:20:12;;;;;;;7.55;6.88;;;16.80;60.90;;;;;;4990227;28;20058;-13
2022/03/20 03:22:37;;;;;;;7.05;6.45;;;16.80;61.00;;;;;;4984889;28;20042;-13
2022/03/20 03:25:04;;;;;;;7.43;6.72;;;16.80;61.10;;;;;;4987196;28;20082;-13
2022/03/20 03:27:30;;;;;;;7.40;6.75;;;16.90;61.10;;;;;;4987234;28;20243;-13
2022/03/20 03:29:55;;;;;;;8.02;7.30;;;16.80;61.00;;;;;;4991782;28;20070;-14
2022/03/20 03:32:21;;;;;;;7.80;7.05;;;16.80;61.10;;;;;;4991600;28;20050;-12
2022/03/20 03:37:32;;;;;;;6.63;6.13;;;16.80;61.10;;;;;;4979142;28;20081;-13
2022/03/20 03:39:58;;;;;;;7.35;6.75;;;16.80;60.90;;;;;;4996031;28;20107;-14
2022/03/20 03:42:24;;;;;;;6.28;5.78;;;16.80;60.90;;;;;;4989664;28;20050;-12
2022/03/20 03:44:50;;;;;;;7.00;6.43;;;16.80;60.90;;;;;;4994956;28;20049;-13
2022/03/20 03:47:16;;;;;;;7.05;6.45;;;16.80;60.90;;;;;;4982923;28;20053;-13
2022/03/20 03:49:41;;;;;;;7.13;6.53;;;16.80;61.10;;;;;;4977329;28;20042;-12
2022/03/20 03:52:07;;;;;;;6.90;6.38;;;16.90;61.00;;;;;;4981635;28;20573;-13
2022/03/20 03:54:32;;;;;;;7.07;6.47;;;16.80;61.00;;;;;;4994070;28;20047;-13
2022/03/20 03:56:58;;;;;;;7.40;6.80;;;16.80;61.00;;;;;;4990438;28;20081;-12
2022/03/20 03:59:24;;;;;;;7.13;6.53;;;16.90;61.00;;;;;;4988475;28;20506;-13
2022/03/20 04:01:50;;;;;;;7.10;6.60;;;16.90;60.80;;;;;;4994846;28;20088;-12
2022/03/20 04:04:15;;;;;;;7.40;6.80;;;16.90;60.80;;;;;;4994282;28;20049;-13
2022/03/20 04:06:41;;;;;;;7.65;7.00;;;16.80;61.60;;;;;;4996336;28;20065;-12
2022/03/20 04:09:06;;;;;;;6.80;6.20;;;16.80;60.90;;;;;;4996153;28;20069;-13
2022/03/20 04:11:32;;;;;;;6.45;6.05;;;16.80;60.80;;;;;;4994357;28;23126;-13
2022/03/20 04:13:58;;;;;;;6.80;6.28;;;16.90;60.70;;;;;;4995517;28;20038;-12
2022/03/20 04:16:23;;;;;;;6.60;6.10;;;16.90;60.70;;;;;;4993701;28;20462;-12
2022/03/20 04:18:50;;;;;;;7.13;6.53;;;16.90;60.70;;;;;;4993914;28;20050;-13
2022/03/20 04:21:16;;;;;;;6.63;6.13;;;16.90;60.90;;;;;;4993646;28;20498;-12
2022/03/20 04:23:49;;;;;;;7.00;6.40;;;16.90;60.90;;;;;;4995469;28;20133;-12
2022/03/20 04:26:19;;;;;;;7.30;6.80;;;16.80;60.90;;;;;;4992388;28;20561;-14
2022/03/20 04:28:46;;;;;;;6.78;6.28;;;16.80;61.00;;;;;;4978071;28;20050;-12
2022/03/20 04:31:19;;;;;;;6.70;6.20;;;16.80;60.90;;;;;;4976714;28;20086;-13
2022/03/20 04:33:49;;;;;;;6.78;6.18;;;16.80;60.90;;;;;;4976125;28;20054;-13
2022/03/20 04:36:15;;;;;;;6.55;6.03;;;16.90;60.80;;;;;;4976042;28;20050;-13
2022/03/20 04:38:41;;;;;;;6.32;5.93;;;16.80;60.90;;;;;;4976238;28;20046;-13
2022/03/20 04:41:06;;;;;;;6.13;5.72;;;16.80;60.90;;;;;;4993295;28;20042;-13
2022/03/20 04:43:32;;;;;;;6.40;5.95;;;16.80;60.90;;;;;;4994040;28;20077;-13
2022/03/20 04:45:58;;;;;;;6.63;6.13;;;16.80;60.90;;;;;;4993942;28;20098;-12
2022/03/20 04:59:21;;;;;;;;;;;16.80;60.80;;;;;;4995546;28;20049;-13
2022/03/20 05:01:46;;;;;;;6.00;5.50;;;16.80;60.90;;;;;;4993667;28;19917;-14
2022/03/20 05:04:13;;;;;;;6.00;5.60;;;16.80;60.90;;;;;;4986803;28;20053;-13
2022/03/20 05:06:39;;;;;;;5.85;5.45;;;16.80;60.90;;;;;;4984398;28;20129;-13
2022/03/20 05:14:33;;;;;;;5.50;5.00;;;16.80;60.90;;;;;;4994464;28;19920;-13
2022/03/20 05:16:59;;;;;;;5.82;5.25;;;16.80;60.90;;;;;;4995455;28;20050;-13
2022/03/20 05:19:25;;;;;;;6.03;5.43;;;16.80;61.00;;;;;;4993350;28;20075;-13
2022/03/20 05:21:51;;;;;;;6.10;5.70;;;16.80;61.10;;;;;;4976381;28;20520;-13
2022/03/20 05:24:17;;;;;;;6.25;5.75;;;16.80;60.90;;;;;;4975930;28;20527;-13
2022/03/20 05:26:43;;;;;;;5.93;5.53;;;16.80;61.10;;;;;;4984542;28;20062;-13
2022/03/20 05:29:08;;;;;;;5.53;5.13;;;16.80;61.00;;;;;;4983354;28;20043;-13
2022/03/20 05:31:34;;;;;;;6.13;5.72;;;16.70;61.00;;;;;;4975393;28;20049;-13
2022/03/20 05:34:00;;;;;;;5.78;5.38;;;16.70;61.00;;;;;;4987133;28;20382;-12
2022/03/20 05:36:29;;;;;;;6.13;5.63;;;16.80;60.90;;;;;;4996655;28;20133;-13
2022/03/20 05:38:56;;;;;;;5.63;5.22;;;16.80;61.00;;;;;;4998081;28;20042;-13
2022/03/20 05:44:06;;;;;;;5.97;5.57;;;16.70;60.90;;;;;;4998169;28;20089;-12
2022/03/20 05:46:31;;;;;;;5.70;5.25;;;16.70;60.90;;;;;;4998013;28;20034;-12
2022/03/20 05:48:57;;;;;;;6.22;5.72;;;16.70;61.00;;;;;;4979752;28;20074;-13
2022/03/20 05:51:24;;;;;;;5.35;5.05;;;16.70;60.90;;;;;;4990991;28;20053;-12
2022/03/20 05:53:49;;;;;;;5.10;4.80;;;16.70;61.00;;;;;;4987263;28;20038;-13
2022/03/20 05:58:59;;;;;;;;;;;16.70;61.20;;;;;;4979193;28;20506;-12
2022/03/20 06:01:26;;;;;;;5.43;5.03;;;16.70;61.10;;;;;;4995367;28;20374;-13
2022/03/20 06:03:52;;;;;;;4.93;4.53;;;16.70;60.90;;;;;;4997063;28;20057;-13
2022/03/20 06:06:18;;;;;;;5.85;5.45;;;16.70;61.10;;;;;;4996877;28;20047;-12
2022/03/20 06:08:44;;;;;;;4.90;4.50;;;16.70;61.00;;;;;;4996506;28;20133;-13
2022/03/20 06:11:09;;;;;;;5.35;5.05;;;16.70;60.90;;;;;;4997754;28;20053;-12
2022/03/20 06:13:37;;;;;;;5.05;4.75;;;16.70;61.20;;;;;;4979848;28;20133;-12
2022/03/20 06:16:06;;;;;;;5.70;5.30;;;16.70;61.40;;;;;;4991490;28;20220;-13
2022/03/20 06:18:32;;;;;;;5.68;5.28;;;16.60;61.30;;;;;;4994357;28;20046;-12
2022/03/20 06:20:57;;;;;;;5.55;5.15;;;16.60;61.20;;;;;;4994953;28;20050;-13
2022/03/20 06:23:23;;;;;;;5.22;4.93;;;16.70;61.30;;;;;;4984091;28;20042;-13
2022/03/20 06:25:51;;;;;;;5.13;4.82;;;16.60;61.10;;;;;;4998023;28;20042;-13
2022/03/20 06:28:17;;;;;;;5.35;5.05;;;16.60;61.10;;;;;;4996989;28;20046;-14
2022/03/20 06:30:43;;;;;;;5.40;5.07;;;16.60;61.10;;;;;;4978959;28;20049;-13
2022/03/20 06:33:09;;;;;;;5.07;4.72;;;16.60;61.20;;;;;;4979753;28;20078;-12
2022/03/20 06:35:35;;;;;;;4.65;4.35;;;16.70;61.10;;;;;;4989041;28;20046;-13
2022/03/20 06:38:01;;;;;;;4.80;4.50;;;16.70;61.00;;;;;;4991700;28;20042;-15
2022/03/20 06:40:26;;;;;;;4.85;4.55;;;16.60;61.20;;;;;;4993890;28;20050;-13
2022/03/20 06:42:52;;;;;;;5.05;4.65;;;16.60;61.10;;;;;;4990182;28;20050;-13
2022/03/20 06:45:20;;;;;;;5.03;4.72;;;16.60;61.10;;;;;;4988447;28;20103;-12
2022/03/20 06:47:46;;;;;;;4.60;4.30;;;16.60;61.10;;;;;;4995624;28;20051;-13
2022/03/20 06:50:12;;;;;;;4.88;4.57;;;16.60;61.10;;;;;;4990222;28;20042;-13
2022/03/20 06:52:40;;;;;;;4.78;4.47;;;16.70;61.10;;;;;;4986719;28;20088;-13
2022/03/20 06:55:07;;;;;;;4.70;4.40;;;16.70;61.10;;;;;;4995997;28;20042;-12
2022/03/20 06:57:33;;;;;;;4.60;4.20;;;16.60;61.10;;;;;;4993712;28;20049;-12
2022/03/20 07:00:00;;;;;;;4.85;4.55;;;16.60;61.10;;;;;;4997591;28;20499;-13
2022/03/20 07:02:25;;;;;;;4.90;4.60;;;16.70;61.00;;;;;;4993329;28;20053;-12
2022/03/20 07:04:51;;;;;;;4.43;4.13;;;16.60;61.00;;;;;;4996511;28;20046;-12
2022/03/20 07:07:17;;;;;;;4.60;4.30;;;16.70;61.10;;;;;;4996306;28;20447;-13
2022/03/20 07:09:43;;;;;;;4.55;4.28;;;16.60;61.10;;;;;;4994818;28;20078;-12
2022/03/20 07:12:10;;;;;;;4.50;4.20;;;16.60;61.30;;;;;;4983568;28;20088;-14
2022/03/20 07:14:35;;;;;;;4.72;4.43;;;16.60;61.50;;;;;;4996374;28;20038;-14
2022/03/20 07:17:07;;;;;;;4.63;4.32;;;16.60;61.50;;;;;;4995715;28;20093;-12
2022/03/20 07:19:32;;;;;;;4.40;4.13;;;16.60;61.40;;;;;;4976714;28;20075;-13
2022/03/20 07:21:58;;;;;;;4.57;4.28;;;16.50;61.40;;;;;;4994478;28;20046;-13
2022/03/20 07:24:24;;;;;;;4.90;4.60;;;16.60;61.20;;;;;;4995340;28;20499;-12
2022/03/20 07:29:35;;;;;;;;;;;16.60;61.50;;;;;;4986755;28;20333;-12
2022/03/20 07:32:02;;;;;;;6.57;4.43;;;16.60;61.30;;;;;;5003933;28;19921;-13
2022/03/20 07:34:28;;;;;;;4.53;4.32;;;16.50;61.40;;;;;;4998838;28;20539;-12
2022/03/20 07:36:54;;;;;;;4.30;4.10;;;16.60;61.50;;;;;;4998919;28;20465;-13
2022/03/20 07:39:19;;;;;;;4.15;3.85;;;16.60;61.50;;;;;;4992835;28;20415;-14
2022/03/20 07:41:45;;;;;;;3.90;3.70;;;16.60;61.50;;;;;;4989224;28;20054;-13
2022/03/20 07:44:11;;;;;;;4.05;3.75;;;16.60;61.40;;;;;;5007709;28;20768;-13
2022/03/20 07:46:38;;;;;;;4.60;4.10;;;16.60;61.30;;;;;;4992702;28;20038;-13
2022/03/20 07:49:04;;;;;;;4.50;4.20;;;16.60;61.20;;;;;;4976633;28;20070;-13
2022/03/20 07:51:30;;;;;;;4.43;4.13;;;16.60;61.30;;;;;;4988248;28;20046;-14
2022/03/20 07:53:56;;;;;;;3.97;3.67;;;16.60;61.40;;;;;;4988269;28;20046;-14
2022/03/20 07:56:23;;;;;;;4.07;3.78;;;16.60;61.50;;;;;;4979826;28;20046;-13
2022/03/20 07:58:51;;;;;;;3.90;3.70;;;16.60;61.50;;;;;;4985519;28;20399;-13
2022/03/20 08:01:17;;;;;;;4.20;3.90;;;16.60;61.50;;;;;;4993179;28;20053;-14
2022/03/20 08:03:42;;;;;;;3.63;3.42;;;16.60;61.50;;;;;;4982124;28;20058;-13
2022/03/20 08:06:08;;;;;;;4.00;3.80;;;16.60;61.60;;;;;;4995699;28;20113;-13
2022/03/20 08:08:36;;;;;;;3.55;3.35;;;16.60;61.60;;;;;;4994410;28;20046;-13
2022/03/20 08:11:01;;;;;;;4.00;3.70;;;16.60;61.60;;;;;;4994538;28;20042;-13
2022/03/20 08:13:31;;;;;;;3.60;3.30;;;16.60;61.60;;;;;;4995282;28;20046;-12
2022/03/20 08:15:57;;;;;;;4.20;3.90;;;16.60;61.80;;;;;;4995600;28;20046;-14
2022/03/20 08:18:23;;;;;;;3.33;3.13;;;16.60;61.20;;;;;;4988668;28;20050;-14
2022/03/20 08:20:48;;;;;;;4.50;4.10;;;16.60;61.80;;;;;;4975101;28;20077;-14
2022/03/20 08:23:14;;;;;;;3.53;3.30;;;16.60;61.20;;;;;;4992604;28;20057;-14
2022/03/20 08:25:39;;;;;;;3.47;3.28;;;16.70;60.80;;;;;;4995057;28;20043;-12
2022/03/20 08:28:07;;;;;;;5.22;3.00;;;16.70;60.40;;;;;;4995016;28;20543;-13
2022/03/20 08:30:33;;;;;;;3.08;2.88;;;16.80;60.40;;;;;;4993431;28;20042;-12
2022/03/20 08:32:59;;;;;;;3.47;2.75;;;16.70;60.50;;;;;;4995419;28;20052;-13
2022/03/20 08:35:25;;;;;;;2.88;2.78;;;16.70;60.00;;;;;;4990758;28;20061;-12
2022/03/20 08:37:53;;;;;;;4.65;3.40;;;16.70;60.20;;;;;;4994886;28;20129;-12
2022/03/20 08:40:19;;;;;;;3.15;2.95;;;16.70;60.10;;;;;;4994250;28;20050;-13
2022/03/20 08:42:55;;;;;;;2.97;2.88;;;16.70;60.30;;;;;;4991258;28;20046;-13
2022/03/20 08:45:24;;;;;;;3.13;2.85;;;16.70;60.20;;;;;;4992626;28;20046;-14
2022/03/20 08:47:50;;;;;;;3.15;2.95;;;16.70;60.10;;;;;;4995225;28;20050;-14
2022/03/20 08:50:16;;;;;;;3.10;2.90;;;16.70;60.30;;;;;;4995739;28;20101;-13
2022/03/20 08:52:45;;;;;;;3.38;3.10;;;16.80;60.20;;;;;;4993869;28;20569;-12
2022/03/20 08:55:11;;;;;;;2.60;2.50;;;16.80;60.20;;;;;;4994975;28;20075;-12
2022/03/20 08:57:40;;;;;;;2.90;2.80;;;16.80;60.00;;;;;;4995118;28;20050;-14
2022/03/20 09:00:11;;;;;;;4.45;2.88;;;16.80;60.20;;;;;;4995037;28;20050;-13
2022/03/20 09:02:37;;;;;;;2.78;2.67;;;16.70;60.10;;;;;;4994115;28;20050;-12
2022/03/20 09:05:04;;;;;;;3.05;2.85;;;16.80;60.30;;;;;;4982490;28;20059;-13
2022/03/20 09:07:30;;;;;;;3.58;3.03;;;16.80;60.00;;;;;;4979750;28;20061;-13
2022/03/20 09:09:56;;;;;;;2.70;2.60;;;16.80;60.10;;;;;;4985197;28;20054;-12
2022/03/20 09:12:21;;;;;;;2.58;2.47;;;16.80;59.90;;;;;;4984122;28;20184;-13
2022/03/20 09:14:47;;;;;;;2.60;2.40;;;16.90;59.80;;;;;;4983252;28;20082;-12
2022/03/20 09:19:57;;;;;;;2.55;2.45;;;16.90;59.60;;;;;;4984367;28;20073;-14
2022/03/20 09:22:25;;;;;;;3.03;2.78;;;17.00;59.50;;;;;;4983650;28;20046;-14
2022/03/20 09:24:51;;;;;;;2.75;2.50;;;17.00;59.50;;;;;;4983652;28;20266;-14
2022/03/20 09:27:16;;;;;;;2.08;1.98;;;17.00;59.40;;;;;;4984671;28;20185;-13
2022/03/20 09:29:42;;;;;;;2.17;2.08;;;17.00;59.40;;;;;;4984673;28;20054;-12
2022/03/20 09:32:08;;;;;;;2.30;2.20;;;17.00;59.40;;;;;;4983772;28;20100;-13
2022/03/20 09:34:34;;;;;;;2.60;2.40;;;17.10;59.50;;;;;;4984155;28;20450;-13
2022/03/20 09:37:00;;;;;;;2.40;2.30;;;17.10;59.50;;;;;;4982798;28;20145;-12
2022/03/20 09:39:28;;;;;;;2.30;2.20;;;17.10;59.40;;;;;;4982497;28;20148;-12
2022/03/20 09:41:55;;;;;;;3.42;2.60;;;17.20;59.50;;;;;;4981735;28;20054;-13
2022/03/20 09:44:26;;;;;;;2.83;2.63;;;17.20;59.30;;;;;;4984343;28;20053;-13
2022/03/20 09:46:52;;;;;;;2.67;2.58;;;17.20;59.20;;;;;;4983716;28;20038;-13
2022/03/20 09:49:19;;;;;;;2.85;2.65;;;17.20;59.80;;;;;;4984374;28;20042;-14
2022/03/20 09:51:44;;;;;;;2.33;2.22;;;17.20;59.00;;;;;;4981721;28;20085;-14
2022/03/20 09:54:13;;;;;;;2.50;2.30;;;17.20;59.80;;;;;;4983169;28;20562;-14
2022/03/20 09:56:41;;;;;;;2.22;2.13;;;17.30;59.20;;;;;;4983099;28;20042;-14
2022/03/20 09:59:07;;;;;;;2.00;1.90;;;17.30;59.20;;;;;;4983760;28;20054;-13
2022/03/20 10:01:34;;;;;;;2.40;2.30;;;17.30;59.20;;;;;;4982692;28;20042;-12
2022/03/20 10:04:15;;;;;;;2.40;2.30;;;17.30;59.10;;;;;;4983018;28;20129;-14
2022/03/20 10:06:41;;;;;;;2.28;2.17;;;17.30;59.10;;;;;;4982869;28;20153;-16
2022/03/20 10:09:11;;;;;;;2.40;2.25;;;17.30;59.10;;;;;;4983883;28;20113;-16
2022/03/20 10:11:46;;;;;;;2.20;2.10;;;17.30;59.00;;;;;;4981433;28;20042;-13
2022/03/20 10:14:15;;;;;;;2.40;2.30;;;17.40;59.00;;;;;;4983160;28;20142;-13
2022/03/20 10:16:43;;;;;;;1.98;1.88;;;17.30;59.00;;;;;;4982193;28;20125;-13
2022/03/20 10:19:28;;;;;;;2.10;2.00;;;17.30;59.20;;;;;;4983641;28;21373;-14
2022/03/20 10:21:54;;;;;;;2.40;2.20;;;17.20;59.20;;;;;;4981264;28;20105;-13
2022/03/20 10:24:21;;;;;;;2.35;2.25;;;17.10;59.20;;;;;;4982584;28;20485;-14
2022/03/20 10:27:13;;;;;;;2.53;1.95;;;17.20;59.00;;;;;;4981936;28;20086;-14
2022/03/20 10:29:47;;;;;;;2.00;1.90;;;17.20;59.00;;;;;;4982982;28;20062;-14
2022/03/20 10:32:12;;;;;;;2.20;2.10;;;17.20;58.70;;;;;;4981351;28;20074;-16
2022/03/20 10:35:02;;;;;;;2.20;2.10;;;17.20;58.70;;;;;;4982530;28;20089;-16
2022/03/20 10:37:55;;;;;;;2.13;2.03;;;17.20;58.70;;;;;;4976984;28;20146;-14
2022/03/20 10:40:23;;;;;;;2.42;2.22;;;17.20;58.20;;;;;;4981487;28;20108;-14
2022/03/20 10:43:07;;;;;;;2.40;2.22;;;17.20;58.10;;;;;;4982227;28;20057;-15
2022/03/20 10:46:00;;;;;;;2.92;2.70;;;17.20;58.10;;;;;;4982367;28;20050;-14
2022/03/20 10:48:36;;;;;;;3.00;2.80;;;17.20;57.90;;;;;;4982025;28;20052;-14
2022/03/20 10:51:03;;;;;;;3.45;3.17;;;17.30;57.80;;;;;;4980705;28;20125;-15
2022/03/20 10:53:29;;;;;;;2.60;2.50;;;17.30;57.40;;;;;;4981925;28;20613;-15
2022/03/20 10:56:07;;;;;;;2.80;2.67;;;17.20;57.50;;;;;;4981814;28;20635;-14
2022/03/20 10:58:39;;;;;;;3.25;3.03;;;17.20;57.40;;;;;;4980739;28;20046;-14
2022/03/20 11:01:07;;;;;;;3.10;2.90;;;17.20;57.30;;;;;;4980519;28;20050;-15
2022/03/20 11:03:33;;;;;;;3.03;2.83;;;17.20;56.70;;;;;;4981009;28;20054;-15
2022/03/20 11:05:59;;;;;;;3.35;3.05;;;17.30;56.80;;;;;;4981162;28;20105;-14
2022/03/20 11:08:26;;;;;;;3.40;3.10;;;17.20;56.90;;;;;;4964706;28;20046;-14
2022/03/20 11:10:52;;;;;;;4.78;4.38;;;17.20;56.90;;;;;;4978839;28;20038;-15
2022/03/20 11:13:18;;;;;;;4.75;4.35;;;17.30;55.40;;;;;;4980361;28;20062;-14
2022/03/20 11:15:44;;;;;;;4.03;3.72;;;17.30;53.90;;;;;;4979652;28;20053;-13
2022/03/20 11:18:11;;;;;;;3.70;3.50;;;17.30;56.00;;;;;;4982041;28;20089;-15
2022/03/20 11:20:38;;;;;;;3.70;3.40;;;17.30;56.30;;;;;;4977894;28;20081;-13
2022/03/20 11:23:05;;;;;;;4.00;3.70;;;17.30;56.30;;;;;;4980091;28;20054;-13
2022/03/20 11:25:31;;;;;;;4.50;4.20;;;17.30;56.00;;;;;;4981691;28;20046;-13
2022/03/20 11:28:03;;;;;;;4.38;4.03;;;17.30;56.20;;;;;;4979968;28;20054;-15
2022/03/20 11:30:33;;;;;;;3.88;3.67;;;17.40;55.30;;;;;;4980017;28;20427;-13
2022/03/20 11:33:02;;;;;;;3.65;3.42;;;17.40;55.50;;;;;;4980712;28;20050;-14
2022/03/20 11:35:30;;;;;;;5.82;4.28;;;17.40;55.40;;;;;;4981498;28;20800;-13
2022/03/20 11:37:58;;;;;;;5.88;4.47;;;17.40;55.20;;;;;;4980125;28;20050;-13
2022/03/20 11:40:25;;;;;;;4.40;4.10;;;17.50;55.10;;;;;;4980311;28;20125;-13
2022/03/20 11:43:10;;;;;;;4.60;4.18;;;17.50;55.30;;;;;;4981545;28;20057;-14
2022/03/20 11:45:36;;;;;;;5.40;4.97;;;17.50;55.10;;;;;;4980002;28;20073;-15
2022/03/20 11:48:16;;;;;;;5.28;4.88;;;17.40;54.00;;;;;;4980796;28;20089;-14
2022/03/20 11:50:43;;;;;;;4.50;4.20;;;17.50;54.80;;;;;;4979148;28;20046;-14
2022/03/20 11:53:09;;;;;;;4.18;3.88;;;17.50;55.20;;;;;;4981220;28;20137;-14
2022/03/20 11:55:41;;;;;;;5.43;4.95;;;17.50;55.10;;;;;;4981416;28;20050;-14
2022/03/20 11:58:10;;;;;;;5.82;5.22;;;17.40;54.60;;;;;;4981108;28;20054;-14
2022/03/20 12:00:39;;;;;;;7.13;5.30;;;17.50;54.30;;;;;;4980419;28;21213;-14
2022/03/20 12:03:14;;;;;;;5.50;4.63;;;17.60;54.80;;;;;;4980052;28;20058;-14
2022/03/20 12:06:00;;;;;;;5.43;4.93;;;17.50;55.00;;;;;;4981118;28;20106;-14
2022/03/20 12:08:33;;;;;;;5.57;5.18;;;17.40;55.30;;;;;;4978332;28;20066;-13
2022/03/20 12:11:22;;;;;;;5.73;5.23;;;17.40;55.30;;;;;;4979622;28;20053;-14
2022/03/20 12:14:16;;;;;;;5.85;5.40;;;17.30;55.10;;;;;;4980126;28;20714;-14
2022/03/20 12:16:45;;;;;;;5.70;5.30;;;17.40;55.30;;;;;;4978763;28;20612;-17
2022/03/20 12:19:12;;;;;;;5.70;5.18;;;17.40;55.30;;;;;;4978442;28;20899;-15
2022/03/20 12:22:00;;;;;;;5.72;5.28;;;17.40;55.30;;;;;;4979386;28;20531;-12
2022/03/20 12:24:35;;;;;;;5.68;5.28;;;17.40;55.30;;;;;;4980294;28;20141;-15
2022/03/20 12:27:20;;;;;;;5.70;5.20;;;17.40;55.30;;;;;;4980793;28;20045;-13
2022/03/20 12:30:07;;;;;;;;;;;17.50;55.00;;;;;;4979573;28;20046;-14
2022/03/20 12:32:48;;;;;;;6.45;5.18;;;17.50;54.70;;;;;;4984583;28;19926;-14
2022/03/20 12:35:17;;;;;;;6.90;6.20;;;17.50;55.00;;;;;;4979292;28;20082;-14
2022/03/20 12:37:44;;;;;;;7.15;6.53;;;17.50;54.70;;;;;;4980253;28;20046;-16
2022/03/20 12:40:35;;;;;;;6.90;6.30;;;17.50;54.90;;;;;;4976739;28;20057;-14
2022/03/20 12:43:13;;;;;;;6.65;5.95;;;17.60;54.50;;;;;;4981160;28;20062;-13
2022/03/20 12:45:50;;;;;;;9.13;7.75;;;17.70;54.70;;;;;;4985233;28;20058;-13
2022/03/20 12:48:17;;;;;;;8.25;7.53;;;17.70;54.10;;;;;;4984698;28;20534;-12
2022/03/20 12:50:48;;;;;;;7.20;6.50;;;17.70;54.30;;;;;;4983597;28;20656;-13
2022/03/20 12:53:16;;;;;;;8.20;6.63;;;17.70;54.60;;;;;;4983763;28;20043;-13
2022/03/20 12:55:47;;;;;;;11.82;8.15;;;17.60;54.90;;;;;;4984398;28;20058;-14
2022/03/20 12:58:15;;;;;;;7.78;7.07;;;17.70;54.70;;;;;;4985229;28;20057;-14
2022/03/20 13:00:40;;;;;;;8.90;7.60;;;17.70;54.40;;;;;;4983501;28;20054;-13
2022/03/20 13:03:07;;;;;;;10.10;7.20;;;17.70;55.00;;;;;;4983925;28;20064;-14
2022/03/20 13:05:34;;;;;;;6.40;5.80;;;17.70;54.80;;;;;;4984724;28;20057;-13
2022/03/20 13:08:00;;;;;;;7.15;6.45;;;17.70;55.00;;;;;;4983991;28;20062;-13
2022/03/20 13:10:37;;;;;;;8.95;8.13;;;17.70;54.80;;;;;;4980893;28;20062;-14
2022/03/20 13:13:04;;;;;;;8.38;7.57;;;17.80;54.40;;;;;;4981116;28;20114;-15
2022/03/20 13:15:34;;;;;;;10.35;7.65;;;17.80;54.60;;;;;;4984339;28;20519;-13
2022/03/20 13:18:01;;;;;;;8.68;7.78;;;17.80;54.20;;;;;;4982550;28;20046;-15
2022/03/20 13:20:28;;;;;;;9.32;7.32;;;17.80;54.20;;;;;;4982753;28;20081;-13
2022/03/20 13:22:54;;;;;;;8.15;7.35;;;17.80;54.40;;;;;;4982982;28;20113;-14